Saturday, November 18, 2017, 4:31 PM EST
Back to Local

KNYC, New York City Central Park

Location: New York, NY, United States Lat: 40.783
Local Time: 4:31 PM EST (21:31 GMT) Lon: -73.967
Time Zone: US/Eastern Elev: 157 ft

Show me the last for .
Show Decoded

2017-11-18 15:51 METAR KNYC 182051Z AUTO VRB05KT 10SM FEW070 FEW085 OVC110 11/03 A2969 RMK AO2
                 RAE09 SLP045 P0000 60000 T01060033 56035 $ =
2017-11-18 14:51 METAR KNYC 181951Z AUTO 19004KT 9SM -RA FEW070 OVC095 10/04 A2971 RMK AO2 RAB42
                 SLP051 P0000 T01000039 $ =
2017-11-18 13:51 METAR KNYC 181851Z AUTO VRB03KT 10SM OVC090 10/02 A2973 RMK AO2 SLP061 T01000022
                 $ =
2017-11-18 12:51 METAR KNYC 181751Z AUTO 18007KT 160V230 10SM CLR 09/01 A2979 RMK AO2 SLP080
                 T00940006 10100 20028 58049 $ =
2017-11-18 11:51 METAR KNYC 181651Z AUTO VRB05KT 10SM CLR 09/M01 A2984 RMK AO2 SLP096 T00891006 $
                 =
2017-11-18 10:51 METAR KNYC 181551Z AUTO VRB04KT 10SM CLR 09/M01 A2990 RMK AO2 SLP116 T00891006 $
                 =
2017-11-18 09:51 METAR KNYC 181451Z AUTO 00000KT 10SM CLR 08/M01 A2994 RMK AO2 SLP130 T00781011
                 58021 $ =
2017-11-18 08:51 METAR KNYC 181351Z 10SM CLR 07/M03 A2996 RMK AO2 SLP138 T00671033 $ =
2017-11-18 07:51 METAR KNYC 181251Z 00000KT 10SM CLR 04/M03 A2998 RMK AO2 SLP145 T00441028 $ =
2017-11-18 06:51 METAR KNYC 181151Z 00000KT 10SM CLR 03/M06 A3000 RMK AO2 SLP151 T00281056 10028
                 20011 58006 $ =
2017-11-18 05:51 METAR KNYC 181051Z 00000KT 10SM CLR 03/M07 A3001 RMK AO2 SLP154 T00281072 $ =
2017-11-18 04:51 METAR KNYC 180951Z 00000KT 10SM CLR 02/M07 A3002 RMK AO2 SLP159 T00221067 $ =
2017-11-18 03:51 METAR KNYC 180851Z AUTO 00000KT 10SM CLR 02/M08 A3002 RMK AO2 SLP156 T00221083
                 58017 $ =
2017-11-18 02:51 METAR KNYC 180751Z AUTO 00000KT 10SM CLR 02/M07 A3003 RMK AO2 PRESFR SLP161
                 T00171067 $ =
2017-11-18 01:51 METAR KNYC 180651Z AUTO VRB03KT 10SM CLR 03/M08 A3007 RMK AO2 SLP173 T00281078 $
                 =
2017-11-18 00:51 METAR KNYC 180551Z AUTO 28004KT 10SM CLR 03/M08 A3007 RMK AO2 SLP173 T00281083
                 10061 20028 58014 $ =
2017-11-17 23:51 METAR KNYC 180451Z AUTO VRB04KT 10SM CLR 03/M09 A3009 RMK AO2 SLP182 T00331089
                 400830028 $ =
2017-11-17 22:51 METAR KNYC 180351Z AUTO 00000KT 10SM CLR 04/M09 A3009 RMK AO2 SLP182 T00391089 $
                 =
2017-11-17 21:51 METAR KNYC 180251Z AUTO 00000KT 10SM CLR 04/M09 A3011 RMK AO2 SLP187 T00391089
                 53002 $ =
2017-11-17 20:51 METAR KNYC 180151Z AUTO 31006KT 10SM CLR 04/M09 A3010 RMK AO2 SLP186 T00441094 $
                 =
2017-11-17 19:51 METAR KNYC 180051Z AUTO VRB06KT 10SM CLR 06/M09 A3010 RMK AO2 SLP186 T00561094 $
                 =
2017-11-17 18:51 METAR KNYC 172351Z AUTO 30007KT 10SM CLR 06/M08 A3010 RMK AO2 SLP185 T00611083
                 10083 20061 51004 $ =
2017-11-17 17:51 METAR KNYC 172251Z AUTO 30007KT 270V330 10SM CLR 07/M09 A3010 RMK AO2 SLP185
                 T00671094 $ =
2017-11-17 16:51 METAR KNYC 172151Z AUTO 10SM CLR 07/M10 A3009 RMK AO2 SLP182 T00721100 $ =

Support USWX by starting your Amazon purchase here.